createdAt,value
2022-09-29T00:00:37.998Z,97337.47
2022-09-29T00:03:04.899Z,97347.44
2022-09-29T00:05:31.670Z,97351.31
2022-09-29T00:07:58.355Z,97351.97
2022-09-29T00:10:25.100Z,97342.88
2022-09-29T00:12:51.500Z,97348.59
2022-09-29T00:15:18.059Z,97359.34
2022-09-29T00:18:09.338Z,97351.66
2022-09-29T00:20:31.498Z,97351.06
2022-09-29T00:22:57.906Z,97347.25
2022-09-29T00:25:24.371Z,97350.09
2022-09-29T00:27:50.800Z,97342.66
2022-09-29T00:30:17.570Z,97344.09
2022-09-29T00:32:44.034Z,97343.31
2022-09-29T00:35:10.925Z,97345.56
2022-09-29T00:37:37.352Z,97344.97
2022-09-29T00:40:04.266Z,97343.59
2022-09-29T00:42:31.856Z,97343.19
2022-09-29T00:45:06.754Z,97339.38
2022-09-29T00:47:36.013Z,97339.84
2022-09-29T00:50:13.069Z,97345.00
2022-09-29T00:52:44.935Z,97345.28
2022-09-29T00:55:15.329Z,97354.84
2022-09-29T00:57:45.071Z,97344.94
2022-09-29T01:00:13.260Z,97340.72
2022-09-29T01:02:50.112Z,97340.56
2022-09-29T01:05:19.733Z,97350.09
2022-09-29T01:07:46.339Z,97347.72
2022-09-29T01:10:16.932Z,97339.50
2022-09-29T01:12:45.321Z,97349.66
2022-09-29T01:15:13.055Z,97344.66
2022-09-29T01:17:39.655Z,97334.97
2022-09-29T01:20:13.142Z,97343.91
2022-09-29T01:22:45.340Z,97347.75
2022-09-29T01:25:40.261Z,97340.47
2022-09-29T01:28:31.721Z,97344.75
2022-09-29T01:31:18.161Z,97346.59
2022-09-29T01:34:07.433Z,97344.00
2022-09-29T01:36:55.408Z,97342.41
2022-09-29T01:39:29.058Z,97353.16
2022-09-29T01:41:58.460Z,97348.50
2022-09-29T01:44:30.905Z,97350.56
2022-09-29T01:46:59.544Z,97348.72
2022-09-29T01:49:29.198Z,97340.25
2022-09-29T01:52:00.105Z,97346.13
2022-09-29T01:54:33.544Z,97350.78
2022-09-29T01:57:03.151Z,97349.97
2022-09-29T01:59:35.753Z,97351.41
2022-09-29T02:02:07.906Z,97355.41
2022-09-29T02:04:41.573Z,97357.25
2022-09-29T02:07:16.941Z,97351.97
2022-09-29T02:09:46.637Z,97353.19
2022-09-29T02:12:14.384Z,97355.81
2022-09-29T02:14:44.563Z,97357.47
2022-09-29T02:17:13.686Z,97348.97
2022-09-29T02:19:43.101Z,97351.59
2022-09-29T02:22:09.572Z,97352.81
2022-09-29T02:24:36.472Z,97348.59
2022-09-29T02:27:03.291Z,97345.75
2022-09-29T02:29:29.864Z,97343.94
2022-09-29T02:31:59.343Z,97346.16
2022-09-29T02:34:25.849Z,97359.31
2022-09-29T02:36:55.297Z,97351.44
2022-09-29T02:39:24.833Z,97349.59
2022-09-29T02:41:51.232Z,97352.03
2022-09-29T02:44:36.552Z,97353.66
2022-09-29T02:47:05.955Z,97342.13
2022-09-29T02:49:44.154Z,97351.44
2022-09-29T02:52:19.981Z,97346.56
2022-09-29T02:54:49.558Z,97347.16
2022-09-29T02:57:34.862Z,97350.41
2022-09-29T03:00:09.823Z,97344.72
2022-09-29T03:02:37.157Z,97353.00
2022-09-29T03:05:08.778Z,97354.81
2022-09-29T03:07:36.261Z,97338.44
2022-09-29T03:10:02.645Z,97343.28
2022-09-29T03:12:29.039Z,97348.91
2022-09-29T03:14:55.462Z,97348.50
2022-09-29T03:17:21.912Z,97344.47
2022-09-29T03:19:48.460Z,97347.50
2022-09-29T03:22:14.880Z,97348.91
2022-09-29T03:24:42.045Z,97356.44
2022-09-29T03:27:09.951Z,97354.78
2022-09-29T03:29:36.723Z,97364.31
2022-09-29T03:32:03.800Z,97364.09
2022-09-29T03:34:33.724Z,97356.44
2022-09-29T03:37:00.238Z,97359.88
2022-09-29T03:39:26.671Z,97353.19
2022-09-29T03:41:53.242Z,97345.13
2022-09-29T03:44:19.657Z,97343.31
2022-09-29T03:46:47.201Z,97340.72
2022-09-29T03:49:15.620Z,97343.72
2022-09-29T03:51:42.590Z,97343.94
2022-09-29T03:54:09.616Z,97351.63
2022-09-29T03:56:36.408Z,97349.56
2022-09-29T03:59:05.276Z,97355.44
2022-09-29T04:01:32.070Z,97351.63
2022-09-29T04:03:58.707Z,97360.88
2022-09-29T04:06:25.089Z,97363.91
2022-09-29T04:08:51.457Z,97365.53
2022-09-29T04:11:17.857Z,97368.78
2022-09-29T04:13:44.248Z,97371.19
2022-09-29T04:16:10.806Z,97376.25
2022-09-29T04:18:37.284Z,97376.03
2022-09-29T04:21:07.580Z,97373.41
2022-09-29T04:23:34.242Z,97375.63
2022-09-29T04:26:03.696Z,97370.78
2022-09-29T04:28:34.772Z,97370.16
2022-09-29T04:31:01.455Z,97377.69
2022-09-29T04:33:29.855Z,97383.75
2022-09-29T04:35:56.955Z,97384.72
2022-09-29T04:38:23.435Z,97382.94
2022-09-29T04:40:49.953Z,97380.50
2022-09-29T04:43:16.488Z,97376.06
2022-09-29T04:45:43.067Z,97374.84
2022-09-29T04:48:09.676Z,97382.94
2022-09-29T04:50:36.201Z,97385.19
2022-09-29T04:53:02.629Z,97378.09
2022-09-29T04:55:29.056Z,97378.28
2022-09-29T04:57:55.520Z,97378.47
2022-09-29T05:00:22.159Z,97372.19
2022-09-29T05:02:50.034Z,97374.03
2022-09-29T05:05:16.639Z,97375.03
2022-09-29T05:07:44.503Z,97379.50
2022-09-29T05:10:10.939Z,97387.56
2022-09-29T05:12:37.383Z,97376.25
2022-09-29T05:15:04.923Z,97381.31
2022-09-29T05:17:31.333Z,97382.53
2022-09-29T05:19:57.793Z,97384.53
2022-09-29T05:22:25.972Z,97389.19
2022-09-29T05:24:52.709Z,97399.88
2022-09-29T05:27:19.154Z,97402.69
2022-09-29T05:29:45.547Z,97405.53
2022-09-29T05:32:12.505Z,97404.69
2022-09-29T05:34:38.882Z,97408.53
2022-09-29T05:37:05.408Z,97402.47
2022-09-29T05:39:34.425Z,97403.66
2022-09-29T05:42:02.442Z,97411.16
2022-09-29T05:44:29.441Z,97406.28
2022-09-29T05:46:55.855Z,97405.09
2022-09-29T05:49:23.277Z,97404.06
2022-09-29T05:51:49.763Z,97402.03
2022-09-29T05:54:16.438Z,97405.84
2022-09-29T05:56:45.278Z,97405.25
2022-09-29T05:59:12.133Z,97403.81
2022-09-29T06:01:38.690Z,97406.44
2022-09-29T06:04:05.216Z,97406.66
2022-09-29T06:06:31.774Z,97404.81
2022-09-29T06:08:59.851Z,97404.41
2022-09-29T06:11:27.814Z,97410.66
2022-09-29T06:13:54.593Z,97416.53
2022-09-29T06:16:22.729Z,97411.84
2022-09-29T06:18:49.161Z,97414.88
2022-09-29T06:21:17.205Z,97417.91
2022-09-29T06:23:43.945Z,97413.44
2022-09-29T06:26:11.434Z,97417.84
2022-09-29T06:28:38.189Z,97420.06
2022-09-29T06:31:06.044Z,97408.16
2022-09-29T06:33:33.779Z,97415.81
2022-09-29T06:36:20.615Z,97419.03
2022-09-29T06:38:47.538Z,97413.78
2022-09-29T06:41:14.032Z,97405.06
2022-09-29T06:43:40.598Z,97418.22
2022-09-29T06:46:07.129Z,97420.59
2022-09-29T06:48:33.640Z,97419.56
2022-09-29T06:51:09.329Z,97413.41
2022-09-29T06:53:38.670Z,97423.75
2022-09-29T06:56:06.103Z,97419.72
2022-09-29T06:58:32.803Z,97428.63
2022-09-29T07:01:02.826Z,97434.09
2022-09-29T07:03:30.105Z,97432.50
2022-09-29T07:06:18.185Z,97431.47
2022-09-29T07:08:42.908Z,97434.50
2022-09-29T07:11:10.162Z,97441.34
2022-09-29T07:13:36.731Z,97439.66
2022-09-29T07:16:10.652Z,97439.56
2022-09-29T07:18:38.656Z,97441.13
2022-09-29T07:21:05.842Z,97439.78
2022-09-29T07:23:32.779Z,97439.44
2022-09-29T07:25:59.284Z,97436.47
2022-09-29T07:28:26.198Z,97440.41
2022-09-29T07:31:10.793Z,97436.00
2022-09-29T07:33:39.511Z,97434.50
2022-09-29T07:36:06.251Z,97433.75
2022-09-29T07:38:33.288Z,97435.06
2022-09-29T07:41:03.577Z,97431.09
2022-09-29T07:43:30.563Z,97430.00
2022-09-29T07:45:57.397Z,97431.75
2022-09-29T07:48:27.923Z,97431.88
2022-09-29T07:51:03.204Z,97442.72
2022-09-29T07:53:30.101Z,97446.25
2022-09-29T07:55:56.657Z,97443.16
2022-09-29T07:58:23.103Z,97444.78
2022-09-29T08:00:55.811Z,97445.00
2022-09-29T08:03:22.471Z,97441.22
2022-09-29T08:05:49.186Z,97446.19
2022-09-29T08:08:15.577Z,97452.44
2022-09-29T08:10:51.839Z,97456.78
2022-09-29T08:13:19.619Z,97454.06
2022-09-29T08:15:46.055Z,97455.78
2022-09-29T08:18:12.604Z,97459.38
2022-09-29T08:20:39.062Z,97472.16
2022-09-29T08:23:06.927Z,97465.41
2022-09-29T08:25:35.286Z,97474.00
2022-09-29T08:28:02.123Z,97481.41
2022-09-29T08:30:28.922Z,97478.78
2022-09-29T08:32:55.521Z,97479.59
2022-09-29T08:35:22.052Z,97489.94
2022-09-29T08:37:48.927Z,97487.50
2022-09-29T08:40:16.020Z,97485.13
2022-09-29T08:43:00.909Z,97482.66
2022-09-29T08:45:54.257Z,97479.56
2022-09-29T08:48:26.700Z,97482.25
2022-09-29T08:50:58.245Z,97481.94
2022-09-29T08:53:29.033Z,97483.19
2022-09-29T08:55:58.066Z,97480.81
2022-09-29T08:58:24.820Z,97483.78
2022-09-29T09:01:02.310Z,97480.09
2022-09-29T09:03:37.945Z,97487.09
2022-09-29T09:06:07.241Z,97482.66
2022-09-29T09:08:45.641Z,97488.63
2022-09-29T09:11:21.613Z,97490.13
2022-09-29T09:14:17.950Z,97492.13
2022-09-29T09:16:50.620Z,97499.34
2022-09-29T09:19:26.531Z,97500.47
2022-09-29T09:22:00.630Z,97492.97
2022-09-29T09:24:27.094Z,97497.28
2022-09-29T09:26:53.981Z,97485.13
2022-09-29T09:29:20.359Z,97498.13
2022-09-29T09:31:53.294Z,97497.34
2022-09-29T09:34:33.446Z,97490.50
2022-09-29T09:37:08.754Z,97492.50
2022-09-29T09:39:38.680Z,97487.56
2022-09-29T09:42:14.847Z,97489.50
2022-09-29T09:44:44.162Z,97489.81
2022-09-29T09:47:32.013Z,97486.28
2022-09-29T09:50:03.220Z,97490.22
2022-09-29T09:52:41.586Z,97486.28
2022-09-29T09:55:15.030Z,97476.03
2022-09-29T09:58:06.540Z,97474.81
2022-09-29T10:00:32.945Z,97480.56
2022-09-29T10:03:04.046Z,97480.75
2022-09-29T10:05:34.309Z,97488.13
2022-09-29T10:08:00.893Z,97485.31
2022-09-29T10:10:28.465Z,97473.69
2022-09-29T10:13:01.964Z,97481.25
2022-09-29T10:15:31.661Z,97481.59
2022-09-29T10:18:04.470Z,97485.13
2022-09-29T10:20:38.089Z,97484.91
2022-09-29T10:23:23.516Z,97487.69
2022-09-29T10:25:55.294Z,97483.84
2022-09-29T10:28:22.830Z,97487.13
2022-09-29T10:30:49.631Z,97486.44
2022-09-29T10:33:18.497Z,97487.78
2022-09-29T10:35:46.775Z,97475.56
2022-09-29T10:38:26.780Z,97486.28
2022-09-29T10:40:54.163Z,97488.19
2022-09-29T10:43:25.285Z,97485.84
2022-09-29T10:45:53.869Z,97489.84
2022-09-29T10:48:20.285Z,97489.66
2022-09-29T10:50:52.331Z,97500.09
2022-09-29T10:53:25.777Z,97489.66
2022-09-29T10:55:54.449Z,97491.81
2022-09-29T10:58:44.735Z,97489.44
2022-09-29T11:01:16.154Z,97493.22
2022-09-29T11:03:49.094Z,97488.69
2022-09-29T11:06:16.664Z,97497.19
2022-09-29T11:09:00.776Z,97495.84
2022-09-29T11:11:27.474Z,97497.44
2022-09-29T11:13:54.575Z,97493.41
2022-09-29T11:16:23.752Z,97499.00
2022-09-29T11:18:52.708Z,97504.31
2022-09-29T11:21:22.144Z,97499.19
2022-09-29T11:23:51.663Z,97496.78
2022-09-29T11:26:18.314Z,97493.06
2022-09-29T11:28:47.778Z,97495.44
2022-09-29T11:31:23.647Z,97496.34
2022-09-29T11:34:09.822Z,97491.59
2022-09-29T11:36:45.068Z,97497.25
2022-09-29T11:39:11.965Z,97499.44
2022-09-29T11:41:57.403Z,97489.28
2022-09-29T11:44:43.045Z,97503.75
2022-09-29T11:47:19.147Z,97504.63
2022-09-29T11:49:56.421Z,97503.28
2022-09-29T11:52:22.906Z,97501.66
2022-09-29T11:54:58.639Z,97501.09
2022-09-29T11:57:49.082Z,97501.63
2022-09-29T12:00:18.035Z,97498.13
2022-09-29T12:02:47.518Z,97493.59
2022-09-29T12:05:20.528Z,97488.53
2022-09-29T12:07:53.058Z,97489.06
2022-09-29T12:10:23.565Z,97494.97
2022-09-29T12:13:00.920Z,97493.38
2022-09-29T12:15:27.260Z,97496.56
2022-09-29T12:17:57.088Z,97486.69
2022-09-29T12:20:35.762Z,97487.78
2022-09-29T12:23:05.649Z,97487.50
2022-09-29T12:25:35.359Z,97502.09
2022-09-29T12:28:05.526Z,97505.81
2022-09-29T12:30:47.475Z,97513.75
2022-09-29T12:33:19.169Z,97508.56
2022-09-29T12:35:48.651Z,97511.22
2022-09-29T12:38:27.428Z,97513.38
2022-09-29T12:41:07.211Z,97511.06
2022-09-29T12:43:42.332Z,97516.97
2022-09-29T12:46:19.251Z,97519.16
2022-09-29T12:48:45.696Z,97514.66
2022-09-29T12:51:17.778Z,97514.69
2022-09-29T12:54:00.480Z,97518.19
2022-09-29T12:56:32.121Z,97515.66
2022-09-29T12:59:20.609Z,97517.34
2022-09-29T13:01:47.305Z,97518.81
2022-09-29T13:04:25.989Z,97518.66
2022-09-29T13:07:11.615Z,97522.50
2022-09-29T13:09:56.756Z,97522.91
2022-09-29T13:12:41.975Z,97517.25
2022-09-29T13:15:11.357Z,97522.53
2022-09-29T13:17:42.542Z,97524.69
2022-09-29T13:20:22.984Z,97527.13
2022-09-29T13:22:57.018Z,97529.38
2022-09-29T13:25:35.080Z,97533.44
2022-09-29T13:28:01.486Z,97537.59
2022-09-29T13:30:29.088Z,97547.41
2022-09-29T13:32:55.485Z,97549.47
2022-09-29T13:35:23.968Z,97553.75
2022-09-29T13:37:52.544Z,97557.75
2022-09-29T13:40:26.594Z,97548.66
2022-09-29T13:42:55.509Z,97551.22
2022-09-29T13:45:29.322Z,97557.22
2022-09-29T13:47:59.265Z,97565.75
2022-09-29T13:50:44.423Z,97564.13
2022-09-29T13:53:25.365Z,97555.63
2022-09-29T13:55:55.971Z,97563.25
2022-09-29T13:58:26.137Z,97564.25
2022-09-29T14:00:53.439Z,97565.88
2022-09-29T14:03:40.074Z,97563.69
2022-09-29T14:09:12.334Z,97582.00
2022-09-29T14:11:38.843Z,97585.38
2022-09-29T14:14:09.141Z,97583.06
2022-09-29T14:16:56.045Z,97581.00
2022-09-29T14:19:41.085Z,97580.91
2022-09-29T14:22:30.930Z,97583.56
2022-09-29T14:25:12.437Z,97583.56
2022-09-29T14:27:58.664Z,97587.13
2022-09-29T14:30:31.420Z,97596.56
2022-09-29T14:32:59.658Z,97593.66
2022-09-29T14:35:36.650Z,97595.84
2022-09-29T14:38:06.395Z,97596.91
2022-09-29T14:40:33.151Z,97609.91
2022-09-29T14:43:09.455Z,97600.13
2022-09-29T14:46:03.260Z,97600.13
2022-09-29T14:48:53.912Z,97612.09
2022-09-29T14:51:46.214Z,97615.91
2022-09-29T14:54:20.526Z,97609.09
2022-09-29T14:57:16.277Z,97610.25
2022-09-29T14:59:48.743Z,97616.34
2022-09-29T15:02:16.206Z,97621.09
2022-09-29T15:04:42.688Z,97618.66
2022-09-29T15:07:12.221Z,97613.00
2022-09-29T15:09:39.871Z,97619.69
2022-09-29T15:12:14.760Z,97611.75
2022-09-29T15:14:42.073Z,97616.16
2022-09-29T15:17:08.866Z,97615.34
2022-09-29T15:19:44.919Z,97620.97
2022-09-29T15:22:11.383Z,97616.81
2022-09-29T15:24:50.070Z,97615.09
2022-09-29T15:27:16.843Z,97615.66
2022-09-29T15:29:46.314Z,97619.69
2022-09-29T15:32:23.726Z,97618.66
2022-09-29T15:34:53.944Z,97625.44
2022-09-29T15:37:22.798Z,97625.56
2022-09-29T15:39:52.968Z,97630.84
2022-09-29T15:42:21.779Z,97632.41
2022-09-29T15:44:55.287Z,97630.69
2022-09-29T15:47:25.959Z,97638.41
2022-09-29T15:49:52.992Z,97636.56
2022-09-29T15:52:23.234Z,97640.59
2022-09-29T15:54:54.136Z,97642.78
2022-09-29T15:57:50.264Z,97650.53
2022-09-29T16:00:22.879Z,97653.19
2022-09-29T16:03:19.778Z,97657.59
2022-09-29T16:05:54.302Z,97662.53
2022-09-29T16:08:22.888Z,97668.09
2022-09-29T16:10:51.477Z,97675.91
2022-09-29T16:13:21.364Z,97684.09
2022-09-29T16:15:49.306Z,97680.63
2022-09-29T16:18:19.405Z,97697.34
2022-09-29T16:20:46.176Z,97695.75
2022-09-29T16:23:21.644Z,97702.63
2022-09-29T16:26:08.136Z,97700.00
2022-09-29T16:28:36.397Z,97699.66
2022-09-29T16:31:04.084Z,97698.94
2022-09-29T16:33:32.895Z,97711.84
2022-09-29T16:36:36.768Z,97706.53
2022-09-29T16:39:06.747Z,97716.94
2022-09-29T16:41:41.000Z,97717.63
2022-09-29T16:44:16.120Z,97709.06
2022-09-29T16:46:45.651Z,97720.47
2022-09-29T16:49:16.771Z,97717.72
2022-09-29T16:51:44.905Z,97727.47
2022-09-29T16:54:22.884Z,97724.25
2022-09-29T16:56:49.986Z,97733.00
2022-09-29T16:59:17.837Z,97724.69
2022-09-29T17:01:46.331Z,97733.00
2022-09-29T17:04:13.119Z,97730.75
2022-09-29T17:06:47.129Z,97734.97
2022-09-29T17:09:19.585Z,97737.91
2022-09-29T17:11:49.386Z,97750.63
2022-09-29T17:14:16.972Z,97742.16
2022-09-29T17:16:44.005Z,97736.16
2022-09-29T17:19:11.183Z,97747.22
2022-09-29T17:21:37.703Z,97749.34
2022-09-29T17:24:05.210Z,97753.06
2022-09-29T17:26:54.973Z,97752.09
2022-09-29T17:29:21.337Z,97748.72
2022-09-29T17:31:47.694Z,97760.16
2022-09-29T17:34:14.129Z,97763.88
2022-09-29T17:36:40.749Z,97764.91
2022-09-29T17:39:07.205Z,97765.28
2022-09-29T17:41:33.983Z,97775.69
2022-09-29T17:44:04.989Z,97777.16
2022-09-29T17:46:31.606Z,97779.59
2022-09-29T17:48:58.365Z,97782.88
2022-09-29T17:51:24.856Z,97781.94
2022-09-29T17:53:51.293Z,97792.31
2022-09-29T17:56:22.480Z,97781.97
2022-09-29T17:58:49.263Z,97787.66
2022-09-29T18:01:19.494Z,97784.44
2022-09-29T18:03:46.099Z,97792.78
2022-09-29T18:06:25.038Z,97788.75
2022-09-29T18:08:54.157Z,97785.72
2022-09-29T18:11:22.141Z,97788.78
2022-09-29T18:13:49.037Z,97781.88
2022-09-29T18:16:17.795Z,97778.63
2022-09-29T18:18:45.072Z,97776.22
2022-09-29T18:21:12.024Z,97781.91
2022-09-29T18:23:38.871Z,97783.34
2022-09-29T18:26:06.694Z,97784.22
2022-09-29T18:28:33.279Z,97784.81
2022-09-29T18:31:10.205Z,97786.06
2022-09-29T18:33:39.028Z,97791.53
2022-09-29T18:36:05.666Z,97789.91
2022-09-29T18:38:32.122Z,97791.34
2022-09-29T18:40:58.639Z,97794.84
2022-09-29T18:43:25.964Z,97794.63
2022-09-29T18:45:53.124Z,97807.25
2022-09-29T18:48:19.614Z,97805.63
2022-09-29T18:50:50.322Z,97806.84
2022-09-29T18:53:19.477Z,97818.59
2022-09-29T18:55:46.382Z,97816.41
2022-09-29T18:58:15.389Z,97817.84
2022-09-29T19:00:44.853Z,97827.97
2022-09-29T19:03:11.264Z,97828.59
2022-09-29T19:05:40.972Z,97832.06
2022-09-29T19:08:07.728Z,97843.00
2022-09-29T19:10:36.334Z,97843.84
2022-09-29T19:13:04.507Z,97848.69
2022-09-29T19:15:34.595Z,97848.50
2022-09-29T19:18:02.056Z,97850.34
2022-09-29T19:20:29.853Z,97851.56
2022-09-29T19:22:58.686Z,97855.38
2022-09-29T19:25:28.911Z,97857.66
2022-09-29T19:27:56.571Z,97862.28
2022-09-29T19:30:24.158Z,97865.94
2022-09-29T19:32:51.611Z,97868.78
2022-09-29T19:35:20.135Z,97871.03
2022-09-29T19:37:46.592Z,97874.88
2022-09-29T19:40:21.500Z,97872.44
2022-09-29T19:42:50.873Z,97885.22
2022-09-29T19:45:17.636Z,97892.31
2022-09-29T19:47:44.242Z,97890.06
2022-09-29T19:50:29.699Z,97892.28
2022-09-29T19:52:56.444Z,97896.13
2022-09-29T19:55:23.950Z,97900.41
2022-09-29T19:57:50.395Z,97899.38
2022-09-29T20:00:18.100Z,97893.50
2022-09-29T20:02:44.725Z,97907.47
2022-09-29T20:05:11.617Z,97905.66
2022-09-29T20:07:38.664Z,97910.94
2022-09-29T20:10:05.202Z,97912.72
2022-09-29T20:12:32.052Z,97903.44
2022-09-29T20:15:00.565Z,97904.63
2022-09-29T20:17:27.324Z,97910.28
2022-09-29T20:19:53.799Z,97913.56
2022-09-29T20:22:20.204Z,97919.22
2022-09-29T20:24:48.023Z,97922.03
2022-09-29T20:27:14.458Z,97923.47
2022-09-29T20:29:40.891Z,97925.50
2022-09-29T20:32:08.549Z,97927.91
2022-09-29T20:34:35.005Z,97930.56
2022-09-29T20:37:01.428Z,97926.94
2022-09-29T20:39:27.969Z,97924.50
2022-09-29T20:41:55.123Z,97929.38
2022-09-29T20:44:25.581Z,97930.59
2022-09-29T20:46:53.299Z,97934.63
2022-09-29T20:49:20.330Z,97932.63
2022-09-29T20:51:46.841Z,97939.09
2022-09-29T20:54:13.805Z,97940.34
2022-09-29T20:56:41.467Z,97935.47
2022-09-29T20:59:10.860Z,97944.78
2022-09-29T21:01:37.318Z,97938.88
2022-09-29T21:04:13.839Z,97943.34
2022-09-29T21:06:41.687Z,97945.59
2022-09-29T21:09:11.174Z,97945.59
2022-09-29T21:11:39.696Z,97950.44
2022-09-29T21:14:08.351Z,97950.84
2022-09-29T21:16:35.728Z,97946.41
2022-09-29T21:19:02.409Z,97958.97
2022-09-29T21:21:28.772Z,97952.47
2022-09-29T21:23:55.232Z,97955.91
2022-09-29T21:26:24.354Z,97960.59
2022-09-29T21:28:52.311Z,97969.09
2022-09-29T21:31:20.172Z,97968.69
2022-09-29T21:33:50.254Z,97975.78
2022-09-29T21:36:17.522Z,97972.13
2022-09-29T21:38:44.804Z,97978.00
2022-09-29T21:41:16.006Z,97979.63
2022-09-29T21:43:44.084Z,97978.00
2022-09-29T21:46:11.490Z,97984.91
2022-09-29T21:48:38.090Z,97986.50
2022-09-29T21:51:05.764Z,97997.06
2022-09-29T21:53:32.872Z,97993.22
2022-09-29T21:56:03.692Z,97997.06
2022-09-29T21:58:30.594Z,97990.78
2022-09-29T22:00:57.510Z,97991.81
2022-09-29T22:03:25.070Z,97999.09
2022-09-29T22:05:51.999Z,98000.91
2022-09-29T22:08:18.408Z,97999.09
2022-09-29T22:10:48.066Z,97997.88
2022-09-29T22:13:14.442Z,97996.88
2022-09-29T22:15:40.942Z,98005.16
2022-09-29T22:18:07.440Z,98003.94
2022-09-29T22:20:35.370Z,98001.91
2022-09-29T22:23:01.972Z,98008.41
2022-09-29T22:25:32.202Z,98008.78
2022-09-29T22:27:59.480Z,98000.25
2022-09-29T22:30:27.094Z,98004.72
2022-09-29T22:32:53.849Z,98006.75
2022-09-29T22:35:21.467Z,98006.53
2022-09-29T22:37:48.022Z,98010.81
2022-09-29T22:40:14.466Z,98010.84
2022-09-29T22:42:40.889Z,98010.25
2022-09-29T22:45:07.563Z,98010.47
2022-09-29T22:47:33.974Z,98014.53
2022-09-29T22:50:00.384Z,98012.28
2022-09-29T22:52:26.862Z,98006.81
2022-09-29T22:54:53.261Z,98021.19
2022-09-29T22:57:19.657Z,98015.69
2022-09-29T22:59:46.083Z,98021.38
2022-09-29T23:02:12.694Z,98028.50
2022-09-29T23:04:39.210Z,98032.97
2022-09-29T23:07:08.434Z,98019.81
2022-09-29T23:09:34.881Z,98029.75
2022-09-29T23:12:01.451Z,98028.72
2022-09-29T23:14:28.319Z,98033.41
2022-09-29T23:16:54.758Z,98039.88
2022-09-29T23:19:21.234Z,98035.63
2022-09-29T23:21:47.859Z,98039.66
2022-09-29T23:24:14.899Z,98045.56
2022-09-29T23:26:41.356Z,98049.63
2022-09-29T23:29:07.842Z,98049.44
2022-09-29T23:31:34.351Z,98053.69
2022-09-29T23:34:00.762Z,98052.88
2022-09-29T23:36:28.790Z,98051.03
2022-09-29T23:39:10.546Z,98049.03
2022-09-29T23:41:37.904Z,98048.63
2022-09-29T23:44:05.228Z,98043.97
2022-09-29T23:46:33.638Z,98044.38
2022-09-29T23:49:01.068Z,98042.34
2022-09-29T23:51:27.847Z,98042.97
2022-09-29T23:53:54.206Z,98044.78
2022-09-29T23:56:21.452Z,98044.56
2022-09-29T23:58:47.896Z,98041.72
